sensor_id;sensor_type;location;lat;lon;timestamp;P1;durP1;ratioP1;P2;durP2;ratioP2
40152;SDS011;26371;56.992;23.912;2024-01-30T00:00:03;30.70;;;16.40;;
40152;SDS011;26371;56.992;23.912;2024-01-30T00:02:33;29.88;;;16.10;;
40152;SDS011;26371;56.992;23.912;2024-01-30T00:05:02;38.13;;;18.87;;
40152;SDS011;26371;56.992;23.912;2024-01-30T00:07:31;33.20;;;16.05;;
40152;SDS011;26371;56.992;23.912;2024-01-30T00:10:02;33.80;;;18.52;;
40152;SDS011;26371;56.992;23.912;2024-01-30T00:12:32;33.65;;;17.33;;
40152;SDS011;26371;56.992;23.912;2024-01-30T00:15:01;31.33;;;16.42;;
40152;SDS011;26371;56.992;23.912;2024-01-30T00:17:31;30.25;;;16.98;;
40152;SDS011;26371;56.992;23.912;2024-01-30T00:20:01;29.67;;;15.43;;
40152;SDS011;26371;56.992;23.912;2024-01-30T00:22:33;35.63;;;16.40;;
40152;SDS011;26371;56.992;23.912;2024-01-30T00:27:32;32.80;;;15.40;;
40152;SDS011;26371;56.992;23.912;2024-01-30T00:30:02;29.67;;;15.38;;
40152;SDS011;26371;56.992;23.912;2024-01-30T00:32:31;29.25;;;16.50;;
40152;SDS011;26371;56.992;23.912;2024-01-30T00:35:00;31.98;;;16.98;;
40152;SDS011;26371;56.992;23.912;2024-01-30T00:37:29;31.30;;;16.13;;
40152;SDS011;26371;56.992;23.912;2024-01-30T00:39:59;29.70;;;16.05;;
40152;SDS011;26371;56.992;23.912;2024-01-30T00:42:30;33.10;;;18.02;;
40152;SDS011;26371;56.992;23.912;2024-01-30T00:44:58;34.25;;;17.42;;
40152;SDS011;26371;56.992;23.912;2024-01-30T00:47:27;33.28;;;16.58;;
40152;SDS011;26371;56.992;23.912;2024-01-30T00:49:56;29.40;;;16.70;;
40152;SDS011;26371;56.992;23.912;2024-01-30T00:52:24;32.42;;;16.77;;
40152;SDS011;26371;56.992;23.912;2024-01-30T00:54:53;29.60;;;16.92;;
40152;SDS011;26371;56.992;23.912;2024-01-30T00:57:22;33.35;;;16.80;;
40152;SDS011;26371;56.992;23.912;2024-01-30T00:59:52;31.35;;;16.75;;
40152;SDS011;26371;56.992;23.912;2024-01-30T01:02:21;34.83;;;17.77;;
40152;SDS011;26371;56.992;23.912;2024-01-30T01:04:50;33.90;;;17.63;;
40152;SDS011;26371;56.992;23.912;2024-01-30T01:07:18;30.63;;;17.02;;
40152;SDS011;26371;56.992;23.912;2024-01-30T01:09:47;31.73;;;16.77;;
40152;SDS011;26371;56.992;23.912;2024-01-30T01:12:16;34.28;;;18.20;;
40152;SDS011;26371;56.992;23.912;2024-01-30T01:14:47;32.83;;;16.95;;
40152;SDS011;26371;56.992;23.912;2024-01-30T01:17:17;34.58;;;17.65;;
40152;SDS011;26371;56.992;23.912;2024-01-30T01:19:46;37.40;;;19.50;;
40152;SDS011;26371;56.992;23.912;2024-01-30T01:22:15;33.70;;;18.98;;
40152;SDS011;26371;56.992;23.912;2024-01-30T01:24:45;34.50;;;18.98;;
40152;SDS011;26371;56.992;23.912;2024-01-30T01:27:14;36.30;;;18.25;;
40152;SDS011;26371;56.992;23.912;2024-01-30T01:29:43;34.07;;;17.60;;
40152;SDS011;26371;56.992;23.912;2024-01-30T01:32:12;36.08;;;19.40;;
40152;SDS011;26371;56.992;23.912;2024-01-30T01:34:42;32.88;;;17.75;;
40152;SDS011;26371;56.992;23.912;2024-01-30T01:37:11;37.20;;;19.17;;
40152;SDS011;26371;56.992;23.912;2024-01-30T01:39:40;34.55;;;18.38;;
40152;SDS011;26371;56.992;23.912;2024-01-30T01:42:09;42.53;;;21.50;;
40152;SDS011;26371;56.992;23.912;2024-01-30T01:44:37;36.47;;;19.27;;
40152;SDS011;26371;56.992;23.912;2024-01-30T01:47:06;38.53;;;19.27;;
40152;SDS011;26371;56.992;23.912;2024-01-30T01:49:35;32.72;;;17.15;;
40152;SDS011;26371;56.992;23.912;2024-01-30T01:52:05;32.42;;;17.52;;
40152;SDS011;26371;56.992;23.912;2024-01-30T01:54:34;34.95;;;18.10;;
40152;SDS011;26371;56.992;23.912;2024-01-30T01:57:03;34.05;;;17.73;;
40152;SDS011;26371;56.992;23.912;2024-01-30T01:59:32;36.60;;;18.65;;
40152;SDS011;26371;56.992;23.912;2024-01-30T02:02:01;33.42;;;17.83;;
40152;SDS011;26371;56.992;23.912;2024-01-30T02:04:31;33.63;;;17.05;;
40152;SDS011;26371;56.992;23.912;2024-01-30T02:07:00;33.17;;;17.52;;
40152;SDS011;26371;56.992;23.912;2024-01-30T02:09:30;32.05;;;16.25;;
40152;SDS011;26371;56.992;23.912;2024-01-30T02:11:59;32.90;;;17.48;;
40152;SDS011;26371;56.992;23.912;2024-01-30T02:14:28;36.65;;;17.95;;
40152;SDS011;26371;56.992;23.912;2024-01-30T02:16:57;33.42;;;17.10;;
40152;SDS011;26371;56.992;23.912;2024-01-30T02:19:25;37.50;;;18.52;;
40152;SDS011;26371;56.992;23.912;2024-01-30T02:21:56;32.80;;;18.33;;
40152;SDS011;26371;56.992;23.912;2024-01-30T02:24:24;38.20;;;18.50;;
40152;SDS011;26371;56.992;23.912;2024-01-30T02:26:53;32.75;;;17.65;;
40152;SDS011;26371;56.992;23.912;2024-01-30T02:29:22;34.78;;;18.63;;
40152;SDS011;26371;56.992;23.912;2024-01-30T02:31:50;35.70;;;18.85;;
40152;SDS011;26371;56.992;23.912;2024-01-30T02:34:19;36.97;;;18.33;;
40152;SDS011;26371;56.992;23.912;2024-01-30T02:36:48;36.08;;;18.33;;
40152;SDS011;26371;56.992;23.912;2024-01-30T02:39:18;32.70;;;17.45;;
40152;SDS011;26371;56.992;23.912;2024-01-30T02:41:47;35.17;;;18.65;;
40152;SDS011;26371;56.992;23.912;2024-01-30T02:44:16;38.17;;;20.30;;
40152;SDS011;26371;56.992;23.912;2024-01-30T02:46:45;42.95;;;18.58;;
40152;SDS011;26371;56.992;23.912;2024-01-30T02:49:14;35.13;;;17.88;;
40152;SDS011;26371;56.992;23.912;2024-01-30T02:51:43;36.60;;;18.30;;
40152;SDS011;26371;56.992;23.912;2024-01-30T02:54:11;40.60;;;18.43;;
40152;SDS011;26371;56.992;23.912;2024-01-30T02:56:41;36.88;;;18.92;;
40152;SDS011;26371;56.992;23.912;2024-01-30T02:59:10;35.53;;;19.00;;
40152;SDS011;26371;56.992;23.912;2024-01-30T03:01:42;38.45;;;19.55;;
40152;SDS011;26371;56.992;23.912;2024-01-30T03:04:12;35.35;;;18.23;;
40152;SDS011;26371;56.992;23.912;2024-01-30T03:06:44;37.20;;;19.30;;
40152;SDS011;26371;56.992;23.912;2024-01-30T03:09:15;43.35;;;21.05;;
40152;SDS011;26371;56.992;23.912;2024-01-30T03:11:46;35.85;;;17.83;;
40152;SDS011;26371;56.992;23.912;2024-01-30T03:14:15;36.40;;;18.70;;
40152;SDS011;26371;56.992;23.912;2024-01-30T03:16:44;36.00;;;19.23;;
40152;SDS011;26371;56.992;23.912;2024-01-30T03:19:14;43.10;;;19.90;;
40152;SDS011;26371;56.992;23.912;2024-01-30T03:21:43;42.83;;;21.70;;
40152;SDS011;26371;56.992;23.912;2024-01-30T03:24:11;47.40;;;21.23;;
40152;SDS011;26371;56.992;23.912;2024-01-30T03:26:40;47.67;;;21.30;;
40152;SDS011;26371;56.992;23.912;2024-01-30T03:29:11;47.53;;;20.02;;
40152;SDS011;26371;56.992;23.912;2024-01-30T03:31:42;50.60;;;23.02;;
40152;SDS011;26371;56.992;23.912;2024-01-30T03:34:10;54.03;;;23.58;;
40152;SDS011;26371;56.992;23.912;2024-01-30T03:36:39;48.97;;;22.13;;
40152;SDS011;26371;56.992;23.912;2024-01-30T03:39:08;46.00;;;20.48;;
40152;SDS011;26371;56.992;23.912;2024-01-30T03:41:37;49.22;;;21.48;;
40152;SDS011;26371;56.992;23.912;2024-01-30T03:44:06;49.77;;;20.67;;
40152;SDS011;26371;56.992;23.912;2024-01-30T03:46:36;40.13;;;19.98;;
40152;SDS011;26371;56.992;23.912;2024-01-30T03:49:04;52.95;;;22.40;;
40152;SDS011;26371;56.992;23.912;2024-01-30T03:51:33;43.97;;;21.20;;
40152;SDS011;26371;56.992;23.912;2024-01-30T03:54:02;42.92;;;21.33;;
40152;SDS011;26371;56.992;23.912;2024-01-30T03:56:30;41.47;;;20.98;;
40152;SDS011;26371;56.992;23.912;2024-01-30T03:58:59;40.58;;;19.90;;
40152;SDS011;26371;56.992;23.912;2024-01-30T04:01:29;37.97;;;19.52;;
40152;SDS011;26371;56.992;23.912;2024-01-30T04:03:59;42.88;;;18.60;;
40152;SDS011;26371;56.992;23.912;2024-01-30T04:06:28;44.90;;;21.17;;
40152;SDS011;26371;56.992;23.912;2024-01-30T04:08:57;41.80;;;21.00;;
40152;SDS011;26371;56.992;23.912;2024-01-30T04:11:26;39.80;;;19.10;;
40152;SDS011;26371;56.992;23.912;2024-01-30T04:13:54;41.28;;;20.80;;
40152;SDS011;26371;56.992;23.912;2024-01-30T04:16:23;33.95;;;19.80;;
40152;SDS011;26371;56.992;23.912;2024-01-30T04:18:52;43.03;;;21.80;;
40152;SDS011;26371;56.992;23.912;2024-01-30T04:23:53;36.38;;;18.15;;
40152;SDS011;26371;56.992;23.912;2024-01-30T04:26:22;35.13;;;18.07;;
40152;SDS011;26371;56.992;23.912;2024-01-30T04:28:52;33.95;;;18.13;;
40152;SDS011;26371;56.992;23.912;2024-01-30T04:31:20;38.60;;;20.73;;
40152;SDS011;26371;56.992;23.912;2024-01-30T04:33:49;44.00;;;22.50;;
40152;SDS011;26371;56.992;23.912;2024-01-30T04:36:18;42.83;;;22.48;;
40152;SDS011;26371;56.992;23.912;2024-01-30T04:38:48;41.85;;;21.55;;
40152;SDS011;26371;56.992;23.912;2024-01-30T04:41:17;47.63;;;22.90;;
40152;SDS011;26371;56.992;23.912;2024-01-30T04:43:45;39.33;;;22.00;;
40152;SDS011;26371;56.992;23.912;2024-01-30T04:46:14;39.78;;;21.02;;
40152;SDS011;26371;56.992;23.912;2024-01-30T04:48:43;39.25;;;21.55;;
40152;SDS011;26371;56.992;23.912;2024-01-30T04:51:13;38.70;;;20.90;;
40152;SDS011;26371;56.992;23.912;2024-01-30T04:53:41;40.80;;;20.90;;
40152;SDS011;26371;56.992;23.912;2024-01-30T04:56:11;41.50;;;22.15;;
40152;SDS011;26371;56.992;23.912;2024-01-30T04:58:40;39.58;;;20.58;;
40152;SDS011;26371;56.992;23.912;2024-01-30T05:01:09;44.23;;;21.97;;
40152;SDS011;26371;56.992;23.912;2024-01-30T05:03:37;48.95;;;24.58;;
40152;SDS011;26371;56.992;23.912;2024-01-30T05:06:06;43.55;;;23.23;;
40152;SDS011;26371;56.992;23.912;2024-01-30T05:08:35;52.17;;;25.90;;
40152;SDS011;26371;56.992;23.912;2024-01-30T05:11:04;48.40;;;23.23;;
40152;SDS011;26371;56.992;23.912;2024-01-30T05:13:35;57.67;;;26.60;;
40152;SDS011;26371;56.992;23.912;2024-01-30T05:16:04;47.00;;;24.77;;
40152;SDS011;26371;56.992;23.912;2024-01-30T05:18:33;56.67;;;26.13;;
40152;SDS011;26371;56.992;23.912;2024-01-30T05:21:02;64.60;;;29.45;;
40152;SDS011;26371;56.992;23.912;2024-01-30T05:23:31;68.28;;;30.58;;
40152;SDS011;26371;56.992;23.912;2024-01-30T05:26:00;67.53;;;31.38;;
40152;SDS011;26371;56.992;23.912;2024-01-30T05:28:31;62.22;;;29.33;;
40152;SDS011;26371;56.992;23.912;2024-01-30T05:31:07;60.42;;;28.00;;
40152;SDS011;26371;56.992;23.912;2024-01-30T05:33:36;49.80;;;25.17;;
40152;SDS011;26371;56.992;23.912;2024-01-30T05:36:05;48.00;;;24.33;;
40152;SDS011;26371;56.992;23.912;2024-01-30T05:38:35;63.42;;;30.45;;
40152;SDS011;26371;56.992;23.912;2024-01-30T05:41:22;61.05;;;28.58;;
40152;SDS011;26371;56.992;23.912;2024-01-30T05:43:51;54.05;;;28.10;;
40152;SDS011;26371;56.992;23.912;2024-01-30T05:46:21;42.97;;;24.10;;
40152;SDS011;26371;56.992;23.912;2024-01-30T05:48:51;54.20;;;27.35;;
40152;SDS011;26371;56.992;23.912;2024-01-30T05:51:20;55.20;;;27.75;;
40152;SDS011;26371;56.992;23.912;2024-01-30T05:53:49;53.35;;;26.42;;
40152;SDS011;26371;56.992;23.912;2024-01-30T05:56:17;65.47;;;29.80;;
40152;SDS011;26371;56.992;23.912;2024-01-30T05:58:46;59.20;;;26.83;;
40152;SDS011;26371;56.992;23.912;2024-01-30T06:01:18;62.28;;;27.65;;
40152;SDS011;26371;56.992;23.912;2024-01-30T06:03:48;62.45;;;27.80;;
40152;SDS011;26371;56.992;23.912;2024-01-30T06:06:17;69.30;;;29.92;;
40152;SDS011;26371;56.992;23.912;2024-01-30T06:08:47;58.17;;;27.75;;
40152;SDS011;26371;56.992;23.912;2024-01-30T06:11:16;52.70;;;25.63;;
40152;SDS011;26371;56.992;23.912;2024-01-30T06:13:45;53.20;;;26.63;;
40152;SDS011;26371;56.992;23.912;2024-01-30T06:16:15;57.80;;;27.02;;
40152;SDS011;26371;56.992;23.912;2024-01-30T06:18:43;48.45;;;24.88;;
40152;SDS011;26371;56.992;23.912;2024-01-30T06:21:13;51.75;;;24.48;;
40152;SDS011;26371;56.992;23.912;2024-01-30T06:23:42;45.00;;;23.67;;
40152;SDS011;26371;56.992;23.912;2024-01-30T06:26:11;41.40;;;21.73;;
40152;SDS011;26371;56.992;23.912;2024-01-30T06:28:39;43.87;;;23.23;;
40152;SDS011;26371;56.992;23.912;2024-01-30T06:31:08;44.72;;;21.95;;
40152;SDS011;26371;56.992;23.912;2024-01-30T06:33:37;46.77;;;23.03;;
40152;SDS011;26371;56.992;23.912;2024-01-30T06:36:05;45.00;;;23.02;;
40152;SDS011;26371;56.992;23.912;2024-01-30T06:38:36;41.55;;;21.13;;
40152;SDS011;26371;56.992;23.912;2024-01-30T06:41:04;44.63;;;21.88;;
40152;SDS011;26371;56.992;23.912;2024-01-30T06:43:33;42.58;;;21.98;;
40152;SDS011;26371;56.992;23.912;2024-01-30T06:46:02;43.33;;;22.50;;
40152;SDS011;26371;56.992;23.912;2024-01-30T06:48:31;43.10;;;22.60;;
40152;SDS011;26371;56.992;23.912;2024-01-30T06:51:00;39.72;;;21.92;;
40152;SDS011;26371;56.992;23.912;2024-01-30T06:53:28;50.40;;;25.38;;
40152;SDS011;26371;56.992;23.912;2024-01-30T06:55:58;54.53;;;25.92;;
40152;SDS011;26371;56.992;23.912;2024-01-30T06:58:27;49.53;;;24.55;;
40152;SDS011;26371;56.992;23.912;2024-01-30T07:00:56;87.97;;;40.60;;
40152;SDS011;26371;56.992;23.912;2024-01-30T07:03:25;57.70;;;29.20;;
40152;SDS011;26371;56.992;23.912;2024-01-30T07:05:54;47.15;;;25.60;;
40152;SDS011;26371;56.992;23.912;2024-01-30T07:08:23;44.27;;;23.23;;
40152;SDS011;26371;56.992;23.912;2024-01-30T07:10:53;44.13;;;22.50;;
40152;SDS011;26371;56.992;23.912;2024-01-30T07:13:28;42.97;;;23.67;;
40152;SDS011;26371;56.992;23.912;2024-01-30T07:15:57;45.20;;;22.85;;
40152;SDS011;26371;56.992;23.912;2024-01-30T07:18:26;43.75;;;24.17;;
40152;SDS011;26371;56.992;23.912;2024-01-30T07:20:56;47.20;;;23.35;;
40152;SDS011;26371;56.992;23.912;2024-01-30T07:25:52;39.20;;;20.55;;
40152;SDS011;26371;56.992;23.912;2024-01-30T07:28:21;50.63;;;25.90;;
40152;SDS011;26371;56.992;23.912;2024-01-30T07:30:52;50.63;;;26.70;;
40152;SDS011;26371;56.992;23.912;2024-01-30T07:33:21;49.30;;;25.42;;
40152;SDS011;26371;56.992;23.912;2024-01-30T07:35:49;50.83;;;27.27;;
40152;SDS011;26371;56.992;23.912;2024-01-30T07:38:20;44.63;;;23.92;;
40152;SDS011;26371;56.992;23.912;2024-01-30T07:40:49;52.90;;;26.57;;
40152;SDS011;26371;56.992;23.912;2024-01-30T07:43:17;47.67;;;24.23;;
40152;SDS011;26371;56.992;23.912;2024-01-30T07:45:47;50.17;;;24.65;;
40152;SDS011;26371;56.992;23.912;2024-01-30T07:48:18;52.67;;;25.92;;
40152;SDS011;26371;56.992;23.912;2024-01-30T07:50:46;48.95;;;24.33;;
40152;SDS011;26371;56.992;23.912;2024-01-30T07:53:16;49.58;;;25.70;;
40152;SDS011;26371;56.992;23.912;2024-01-30T07:55:44;48.90;;;24.42;;
40152;SDS011;26371;56.992;23.912;2024-01-30T07:58:13;50.70;;;25.10;;
40152;SDS011;26371;56.992;23.912;2024-01-30T08:00:43;53.00;;;26.10;;
40152;SDS011;26371;56.992;23.912;2024-01-30T08:03:12;46.00;;;24.70;;
40152;SDS011;26371;56.992;23.912;2024-01-30T08:05:44;41.05;;;23.63;;
40152;SDS011;26371;56.992;23.912;2024-01-30T08:08:13;49.95;;;25.77;;
40152;SDS011;26371;56.992;23.912;2024-01-30T08:10:41;46.97;;;27.17;;
40152;SDS011;26371;56.992;23.912;2024-01-30T08:13:10;43.75;;;24.38;;
40152;SDS011;26371;56.992;23.912;2024-01-30T08:15:39;44.43;;;24.63;;
40152;SDS011;26371;56.992;23.912;2024-01-30T08:18:07;42.05;;;23.20;;
40152;SDS011;26371;56.992;23.912;2024-01-30T08:20:36;48.67;;;25.57;;
40152;SDS011;26371;56.992;23.912;2024-01-30T08:23:06;39.70;;;22.98;;
40152;SDS011;26371;56.992;23.912;2024-01-30T08:25:35;44.30;;;22.95;;
40152;SDS011;26371;56.992;23.912;2024-01-30T08:28:04;42.90;;;21.83;;
